Bitte eine E-Mail-Adresse für das Benutzerkonto eingeben. Ein Bestätigungscode wird dann an diese verschickt. Sobald der Code vorliegt, kann ein neues Passwort für das Benutzerkonto festgelegt werden.

 

 

WebCam

  
Kamera Halle
Kamera Vorplatz
Wetter EDDS

METAR

EDDS 141250Z 23018G30KT 190V260 9999 FEW039 BKN220 06/M01 Q1000 NOSIG =


TAF

EDDS 141100Z 1412/1512 22015G25KT 9999 SCT020 BECMG 1412/1415 22010KT TEMPO 1412/1503 26020G35KT SHRA BKN020CB PROB30 TEMPO 1417/1503 4000 TSRA BKN015CB TEMPO 1506/1512 4000 SHRASN BKN014CB =


SR/SS

07:06 / 15:25 UTC
(EDSO 14-12-2017)

Austräger der GPS Triangle WM 2017